createdAt,value
2022-09-08T00:04:16.357Z,2.53
2022-09-08T00:09:20.999Z,2.28
2022-09-08T00:14:25.753Z,1.30
2022-09-08T00:19:33.377Z,2.35
2022-09-08T00:24:37.948Z,2.45
2022-09-08T00:29:42.566Z,2.83
2022-09-08T00:34:49.744Z,3.05
2022-09-08T00:39:54.579Z,1.50
2022-09-08T00:44:59.728Z,2.05
2022-09-08T00:50:10.033Z,2.25
2022-09-08T00:55:15.175Z,4.57
2022-09-08T01:00:21.351Z,1.67
2022-09-08T01:05:42.741Z,2.67
2022-09-08T01:11:23.542Z,1.90
2022-09-08T01:16:28.354Z,2.13
2022-09-08T01:21:44.879Z,1.42
2022-09-08T01:26:55.552Z,3.80
2022-09-08T01:32:03.127Z,4.13
2022-09-08T01:37:07.706Z,1.75
2022-09-08T01:42:12.297Z,3.15
2022-09-08T01:47:19.460Z,2.92
2022-09-08T01:52:24.028Z,2.83
2022-09-08T01:57:28.609Z,5.18
2022-09-08T02:02:35.980Z,2.88
2022-09-08T02:07:40.856Z,1.88
2022-09-08T02:12:45.483Z,2.08
2022-09-08T02:17:52.650Z,2.83
2022-09-08T02:22:58.295Z,1.95
2022-09-08T02:28:02.846Z,3.00
2022-09-08T02:33:10.001Z,2.65
2022-09-08T02:38:14.789Z,1.40
2022-09-08T02:43:19.613Z,1.65
2022-09-08T02:48:27.261Z,1.80
2022-09-08T02:53:32.607Z,2.45
2022-09-08T02:58:37.804Z,2.35
2022-09-08T03:03:49.871Z,2.78
2022-09-08T03:08:55.195Z,3.00
2022-09-08T03:14:03.641Z,2.65
2022-09-08T03:19:13.234Z,3.10
2022-09-08T03:24:17.846Z,3.58
2022-09-08T03:29:22.540Z,3.28
2022-09-08T03:34:29.759Z,4.50
2022-09-08T03:39:34.601Z,2.28
2022-09-08T03:44:39.437Z,3.65
2022-09-08T03:49:47.792Z,4.43
2022-09-08T03:54:53.709Z,3.60
2022-09-08T04:00:00.721Z,3.45
2022-09-08T04:05:09.703Z,2.95
2022-09-08T04:10:18.653Z,3.60
2022-09-08T04:15:25.092Z,3.80
2022-09-08T04:20:32.302Z,3.30
2022-09-08T04:25:36.852Z,3.40
2022-09-08T04:30:42.075Z,3.40
2022-09-08T04:35:50.987Z,2.83
2022-09-08T04:41:06.728Z,5.90
2022-09-08T04:46:13.979Z,6.22
2022-09-08T04:51:26.642Z,6.45
2022-09-08T04:56:33.783Z,6.72
2022-09-08T05:01:40.485Z,5.72
2022-09-08T05:06:47.911Z,5.32
2022-09-08T05:11:52.429Z,4.68
2022-09-08T05:16:57.322Z,3.90
2022-09-08T05:22:04.411Z,4.70
2022-09-08T05:27:09.029Z,4.35
2022-09-08T05:32:13.518Z,5.63
2022-09-08T05:37:20.944Z,5.00
2022-09-08T05:42:25.421Z,6.00
2022-09-08T05:47:30.022Z,4.72
2022-09-08T05:52:37.240Z,3.50
2022-09-08T05:57:42.189Z,3.72
2022-09-08T06:02:47.069Z,4.35
2022-09-08T06:07:54.332Z,4.15
2022-09-08T06:13:01.439Z,4.63
2022-09-08T06:18:06.266Z,4.68
2022-09-08T06:23:13.481Z,3.85
2022-09-08T06:28:29.973Z,3.95
2022-09-08T06:33:42.485Z,2.92
2022-09-08T06:38:57.508Z,2.78
2022-09-08T06:44:07.385Z,3.22
2022-09-08T06:49:13.338Z,3.72
2022-09-08T06:54:37.935Z,3.22
2022-09-08T06:59:54.781Z,3.72
2022-09-08T07:05:04.790Z,5.93
2022-09-08T07:10:17.340Z,4.55
2022-09-08T07:15:30.245Z,4.47
2022-09-08T07:20:34.935Z,6.53
2022-09-08T07:31:48.105Z,4.20
2022-09-08T07:37:04.010Z,4.10
2022-09-08T07:42:13.570Z,4.82
2022-09-08T07:47:41.730Z,6.38
2022-09-08T07:52:53.938Z,3.13
2022-09-08T07:58:10.702Z,3.40
2022-09-08T08:03:43.440Z,4.90
2022-09-08T08:08:59.318Z,3.72
2022-09-08T08:14:16.390Z,3.60
2022-09-08T08:19:41.825Z,4.40
2022-09-08T08:24:55.074Z,3.83
2022-09-08T08:30:08.336Z,3.67
2022-09-08T08:35:25.980Z,3.53
2022-09-08T08:40:36.146Z,3.97
2022-09-08T08:45:52.550Z,3.05
2022-09-08T08:51:26.503Z,3.80
2022-09-08T08:56:39.438Z,2.17
2022-09-08T09:02:01.434Z,2.72
2022-09-08T09:07:35.960Z,2.97
2022-09-08T09:13:13.288Z,2.40
2022-09-08T09:18:43.970Z,3.70
2022-09-08T09:24:02.862Z,5.15
2022-09-08T09:29:24.212Z,2.28
2022-09-08T09:39:58.369Z,4.20
2022-09-08T09:45:25.322Z,3.60
2022-09-08T09:50:45.612Z,3.25
2022-09-08T09:56:25.660Z,4.07
2022-09-08T10:01:51.296Z,2.97
2022-09-08T10:07:31.599Z,3.70
2022-09-08T10:13:23.444Z,3.22
2022-09-08T10:19:01.468Z,3.45
2022-09-08T10:24:32.295Z,2.22
2022-09-08T10:30:07.895Z,1.20
2022-09-08T10:35:38.330Z,0.93
2022-09-08T10:40:56.963Z,0.82
2022-09-08T10:46:29.891Z,1.60
2022-09-08T10:51:55.435Z,0.70
2022-09-08T10:57:02.480Z,1.13
2022-09-08T11:02:35.988Z,1.42
2022-09-08T11:08:10.449Z,1.17
2022-09-08T11:13:30.176Z,1.30
2022-09-08T11:18:40.612Z,3.03
2022-09-08T11:23:54.212Z,2.07
2022-09-08T11:29:10.581Z,0.93
2022-09-08T11:34:31.054Z,2.50
2022-09-08T11:39:52.127Z,1.13
2022-09-08T11:45:12.793Z,0.93
2022-09-08T11:50:46.544Z,2.97
2022-09-08T11:56:07.661Z,1.45
2022-09-08T12:01:30.503Z,2.33
2022-09-08T12:06:55.715Z,1.38
2022-09-08T12:12:21.998Z,2.88
2022-09-08T12:17:46.095Z,0.82
2022-09-08T12:23:10.861Z,1.42
2022-09-08T12:28:38.975Z,0.52
2022-09-08T12:34:15.268Z,0.32
2022-09-08T12:39:39.337Z,0.63
2022-09-08T12:44:56.302Z,0.10
2022-09-08T12:50:24.286Z,0.10
2022-09-08T12:55:41.751Z,0.28
2022-09-08T13:00:59.101Z,0.45
2022-09-08T13:06:37.240Z,0.52
2022-09-08T13:12:14.459Z,0.47
2022-09-08T13:17:23.903Z,0.63
2022-09-08T13:22:45.462Z,1.23
2022-09-08T13:28:14.183Z,0.73
2022-09-08T13:33:43.318Z,1.65
2022-09-08T13:39:13.900Z,0.30
2022-09-08T13:44:44.630Z,2.10
2022-09-08T13:50:02.378Z,0.20
2022-09-08T13:55:35.275Z,0.47
2022-09-08T14:01:05.805Z,0.30
2022-09-08T14:06:15.924Z,0.10
2022-09-08T14:11:49.014Z,0.20
2022-09-08T14:16:56.918Z,0.77
2022-09-08T14:22:18.146Z,0.93
2022-09-08T14:27:56.311Z,0.90
2022-09-08T14:33:20.939Z,0.32
2022-09-08T14:38:49.403Z,0.22
2022-09-08T14:44:21.665Z,0.25
2022-09-08T14:49:51.499Z,0.80
2022-09-08T14:55:17.015Z,0.40
2022-09-08T15:00:28.028Z,0.55
2022-09-08T15:05:44.659Z,0.50
2022-09-08T15:10:59.017Z,0.20
2022-09-08T15:16:26.932Z,0.75
2022-09-08T15:21:34.911Z,0.70
2022-09-08T15:26:52.007Z,0.28
2022-09-08T15:32:07.306Z,0.32
2022-09-08T15:37:24.189Z,0.93
2022-09-08T15:42:47.059Z,1.02
2022-09-08T15:48:10.409Z,0.43
2022-09-08T15:53:38.478Z,1.05
2022-09-08T15:59:10.716Z,0.68
2022-09-08T16:04:28.696Z,0.57
2022-09-08T16:10:03.258Z,0.45
2022-09-08T16:15:15.593Z,0.40
2022-09-08T16:20:26.953Z,0.40
2022-09-08T16:25:38.973Z,0.60
2022-09-08T16:31:06.989Z,0.30
2022-09-08T16:36:24.251Z,0.73
2022-09-08T16:41:45.322Z,0.30
2022-09-08T16:46:50.236Z,1.67
2022-09-08T16:52:16.571Z,0.55
2022-09-08T16:57:28.188Z,0.75
2022-09-08T17:02:46.846Z,0.90
2022-09-08T17:08:03.458Z,1.70
2022-09-08T17:13:19.954Z,0.70
2022-09-08T17:18:53.463Z,1.23
2022-09-08T17:24:17.336Z,1.42
2022-09-08T17:29:37.456Z,0.32
2022-09-08T17:34:44.458Z,0.80
2022-09-08T17:39:53.801Z,0.88
2022-09-08T17:45:24.369Z,0.68
2022-09-08T17:50:31.095Z,1.37
2022-09-08T17:55:46.114Z,1.88
2022-09-08T18:00:59.027Z,0.73
2022-09-08T18:06:20.550Z,0.47
2022-09-08T18:16:44.620Z,0.75
2022-09-08T18:22:08.478Z,1.45
2022-09-08T18:27:25.619Z,0.40
2022-09-08T18:32:45.716Z,0.65
2022-09-08T18:37:54.459Z,0.65
2022-09-08T18:43:13.499Z,0.85
2022-09-08T18:48:28.304Z,0.77
2022-09-08T18:53:36.967Z,2.55
2022-09-08T18:59:01.108Z,1.20
2022-09-08T19:04:13.530Z,1.17
2022-09-08T19:09:55.011Z,1.92
2022-09-08T19:15:16.853Z,1.67
2022-09-08T19:20:25.259Z,1.02
2022-09-08T19:25:30.649Z,0.30
2022-09-08T19:30:41.740Z,1.88
2022-09-08T19:35:46.502Z,2.55
2022-09-08T19:41:09.395Z,0.50
2022-09-08T19:46:38.487Z,1.40
2022-09-08T19:51:57.074Z,1.05
2022-09-08T19:57:03.765Z,2.50
2022-09-08T20:02:17.860Z,2.00
2022-09-08T20:07:38.909Z,1.13
2022-09-08T20:12:54.580Z,0.93
2022-09-08T20:18:27.266Z,2.25
2022-09-08T20:23:45.611Z,1.00
2022-09-08T20:29:13.132Z,1.52
2022-09-08T20:34:50.195Z,0.98
2022-09-08T20:40:19.172Z,1.23
2022-09-08T20:45:33.494Z,1.70
2022-09-08T20:50:50.943Z,1.65
2022-09-08T20:56:07.464Z,0.80
2022-09-08T21:01:23.045Z,1.70
2022-09-08T21:06:32.092Z,2.85
2022-09-08T21:11:39.078Z,1.65
2022-09-08T21:16:49.738Z,2.08
2022-09-08T21:22:06.601Z,0.87
2022-09-08T21:27:25.800Z,0.73
2022-09-08T21:32:49.331Z,1.08
2022-09-08T21:38:09.645Z,1.90
2022-09-08T21:43:19.364Z,1.50
2022-09-08T21:48:27.965Z,2.85
2022-09-08T21:53:45.385Z,1.00
2022-09-08T21:58:59.283Z,2.10
2022-09-08T22:04:09.233Z,1.33
2022-09-08T22:09:25.547Z,2.03
2022-09-08T22:14:50.663Z,0.70
2022-09-08T22:19:59.425Z,1.48
2022-09-08T22:25:14.073Z,1.08
2022-09-08T22:30:27.523Z,1.95
2022-09-08T22:35:52.825Z,1.00
2022-09-08T22:41:12.425Z,0.98
2022-09-08T22:46:29.724Z,2.97
2022-09-08T22:51:43.930Z,1.25
2022-09-08T22:56:59.402Z,1.35
2022-09-08T23:02:17.112Z,1.02
2022-09-08T23:07:29.212Z,2.38
2022-09-08T23:12:42.391Z,1.10
2022-09-08T23:17:55.379Z,1.02
2022-09-08T23:23:19.363Z,1.48
2022-09-08T23:28:48.232Z,2.63
2022-09-08T23:34:04.063Z,1.55
2022-09-08T23:39:20.396Z,1.17
2022-09-08T23:44:27.833Z,1.17
2022-09-08T23:49:33.993Z,1.23
2022-09-08T23:54:41.826Z,2.63
2022-09-08T23:59:49.156Z,1.55
